Highlands Peak, California Weather observations

Data are for observation ending at time listed.
 Day   Time    Ave.   Ave.  Ave.  Vector   Max.   Stn.    Total    Solar   Ave.  
  of    of     Air    Rel.  Wind   Wind    Wind   Baro.  Precip.   Rad.    Soil  
Year   Day     Temp.  Hum.  Speed  Dir.    Gust   Pres.                    Temp. 
2014   (PST)    F      %     mph   deg.    mph     mb.     in.     W/m2     F   
------------------------------------------------------------------------------
 259   12:50   88.6     7    5.2   174     12.9   927.4    0.00     917    84.0
 259   13:00   89.5     6    4.1   191      9.1   927.4    0.00     904    84.3
 259   13:10   90.5     6    4.5   246      9.6   927.3    0.00     890    84.7
 259   13:20   88.1     9    5.7   258     11.4   927.3    0.00     873    85.2
 259   13:30   87.1     9    6.5   251     11.8   927.2    0.00     858    85.6
 259   13:40   85.0    10    5.2   250      8.8   927.3    0.00     839    86.1
 259   13:50   84.4    11    3.3   253      7.0   927.2    0.00     817    86.5
 259   14:00   83.4    12    5.1   250      8.5   927.1    0.00     796    86.9
 259   14:10   82.9    13    4.8   259      8.2   927.1    0.00     775    87.4
 259   14:20   82.8    12    3.9   232      6.3   926.9    0.00     731    87.8
 259   14:30   82.3    14    5.2   266      8.7   926.9    0.00     729    88.4
 259   14:40   80.8    15    3.8   266      6.8   926.9    0.00     701    88.8
 259   14:50   82.2    13    3.4   277      7.1   926.8    0.00     673    89.2
 259   15:00   81.9    12    4.7   275      7.7   926.8    0.00     644    89.6
 259   15:10   82.7    12    3.0   294      7.3   926.7    0.00     612    89.9
 259   15:20   83.5    10    3.7   270      7.7   926.7    0.00     580    90.3
 259   15:30   83.4    10    6.2   271     10.2   926.7    0.00     546    90.6
 259   15:40   81.6    12    4.5   276      8.8   926.6    0.00     513    91.0
 259   15:50   81.6     9    4.1   281      7.5   926.5    0.00     477    91.2
 259   16:00   81.9    10    1.9   310      4.9   926.3    0.00     442    91.4
 259   16:10   82.2    11    2.5   294      5.8   926.2    0.00     406    91.6
 259   16:20   83.1    10    3.0   300      9.3   926.1    0.00     370    91.7
 259   16:30   83.0     9    3.2   279      8.7   926.1    0.00     334    91.9
 259   16:40   82.6    11    1.5   297      4.7   926.1    0.00     299    92.0
 259   16:50   81.8    12    2.2   273      6.1   926.0    0.00     238    92.2
 259   17:00   80.4    10    3.7   274      6.1   926.0    0.00     214    92.3
 259   17:10   79.5     8    2.6   293      4.5   926.1    0.00     162    92.4
 259   17:20   79.1     7    2.0   308      3.6   926.1    0.00     105    92.4
 259   17:30   79.3     6    2.5   303      4.3   926.2    0.00     105    92.4
 259   17:40   79.9     6    4.6   278      6.8   926.2    0.00     101    92.4
 259   17:50   78.7     7    2.6   294      5.2   926.2    0.00      65    92.3
 259   18:00   77.5     6    3.4   350      4.4   926.1    0.00      41    92.3
 259   18:10   76.4     6    3.7   320      4.5   926.1    0.00      21    92.2
 259   18:20   75.2     5    3.6   312      4.2   926.2    0.00       7    92.2
 259   18:30   74.4     5    3.9     4      4.3   926.1    0.00       1    92.0
 259   18:40   76.1     6    3.2    12      4.2   926.0    0.00       0    91.8
 259   18:50   75.7     7    3.6   359      4.5   925.9    0.00       0    91.7
 259   19:00   75.6     7    3.2   345      4.2   926.0    0.00       0    91.5
 259   19:10   75.3     8    2.2    24      5.3   926.0    0.00       0    91.3
 259   19:20   75.5     9    3.6    70      5.0   926.1    0.00       0    91.1
 259   19:30   75.9     8    3.1    46      5.1   926.1    0.00       0    90.8
 259   19:40   75.3    10    2.9    52      4.2   926.1    0.00       0    90.6
 259   19:50   75.5    10    2.6    38      3.9   926.2    0.00       0    90.4
 259   20:00   75.3     7    2.9   293      3.9   926.2    0.00       0    90.1
 259   20:10   74.7     7    2.0   281      3.9   926.3    0.00       0    89.8
 259   20:20   75.0    10    5.3    89      6.9   926.2    0.00       0    89.4
 259   20:30   76.2    11    4.2    83      6.8   926.2    0.00       0    89.2
 259   20:40   75.7    11    3.2   312      6.8   926.3    0.00       0    89.0
 259   20:50   74.9    10    2.3    10      5.3   926.3    0.00       0    88.8
 259   21:00   74.2    13    5.3    83      6.4   926.2    0.00       0    88.5
 259   21:10   74.9    14    3.8    73      6.6   926.2    0.00       0    88.3
 259   21:20   75.2    12    1.2   359      2.7   926.2    0.00       0    88.1
 259   21:30   75.3    12    1.6    74      3.9   926.2    0.00       0    87.8
 259   21:40   75.3    11    3.7    53      7.0   926.1    0.00       0    87.6
 259   21:50   75.0    13    3.9    67      6.4   926.0    0.00       0    87.4
 259   22:00   76.5    14    3.5    54      6.2   926.0    0.00       0    87.2
 259   22:10   75.6    10    3.1   277      5.8   926.0    0.00       0    87.0
 259   22:20   74.6    10    3.6    15      6.1   926.0    0.00       0    86.7
 259   22:30   74.1    15    4.7    84      5.6   926.0    0.00       0    86.5
 259   22:40   74.3    16    5.0    70      6.6   925.9    0.00       0    86.3
 259   22:50   76.2    14    2.3    48      4.2   925.9    0.00       0    86.1
 259   23:00   76.4    14    3.4    52      4.7   925.8    0.00       0    85.9
 259   23:10   76.2    15    3.6    60      5.8   925.7    0.00       0    85.8
 259   23:20   75.5    17    4.1    74      5.3   925.7    0.00       0    85.5
 259   23:30   75.6    17    2.3    78      3.8   925.7    0.00       0    85.3
 259   23:40   76.4    16    2.8    66      5.0   925.6    0.00       0    85.1
 259   23:50  99999.0   99999  99999.0   99999    99999.0   99999.0   99999.00   99999    99999.0
 260    0:00  99999.0   99999  99999.0   99999    99999.0   99999.0   99999.00   99999    99999.0
 260    0:10  99999.0   99999  99999.0   99999    99999.0   99999.0   99999.00   99999    99999.0
 260    0:20  99999.0   99999  99999.0   99999    99999.0   99999.0   99999.00   99999    99999.0
 260    0:30  99999.0   99999  99999.0   99999    99999.0   99999.0   99999.00   99999    99999.0
 260    0:40  99999.0   99999  99999.0   99999    99999.0   99999.0   99999.00   99999    99999.0
 260    0:50  99999.0   99999  99999.0   99999    99999.0   99999.0   99999.00   99999    99999.0
 260    1:00  99999.0   99999  99999.0   99999    99999.0   99999.0   99999.00   99999    99999.0
 260    1:10  99999.0   99999  99999.0   99999    99999.0   99999.0   99999.00   99999    99999.0
 260    1:20  99999.0   99999  99999.0   99999    99999.0   99999.0   99999.00   99999    99999.0
 260    1:30  99999.0   99999  99999.0   99999    99999.0   99999.0   99999.00   99999    99999.0
 260    1:40  99999.0   99999  99999.0   99999    99999.0   99999.0   99999.00   99999    99999.0
 260    1:50  99999.0   99999  99999.0   99999    99999.0   99999.0   99999.00   99999    99999.0
 260    2:00  99999.0   99999  99999.0   99999    99999.0   99999.0   99999.00   99999    99999.0
 260    2:10  99999.0   99999  99999.0   99999    99999.0   99999.0   99999.00   99999    99999.0
 260    2:20  99999.0   99999  99999.0   99999    99999.0   99999.0   99999.00   99999    99999.0
 260    2:30  99999.0   99999  99999.0   99999    99999.0   99999.0   99999.00   99999    99999.0
 260    2:40  99999.0   99999  99999.0   99999    99999.0   99999.0   99999.00   99999    99999.0
 260    2:50   75.8    11    4.8    79      7.7   925.1    0.00       0    81.7
 260    3:00   75.0    11    6.0    82      7.5   925.0    0.00       0    81.6
 260    3:10   75.2    11    5.0    89      7.0   925.0    0.00       0    81.3
 260    3:20   75.6    10    5.1    78      7.1   924.9    0.00       0    81.2
 260    3:30   74.7    11    4.7    85      7.1   924.9    0.00       0    81.0
 260    3:40  99999.0   99999  99999.0   99999    99999.0   99999.0   99999.00   99999    99999.0
 260    3:50   74.8    11    2.3   114      4.7   925.0    0.00       0    80.7
 260    4:00   73.2    13    2.3    54      4.7   924.9    0.00       0    80.6
 260    4:10   72.0    14    1.4   100      2.7   924.9    0.00       0    80.5
 260    4:20   71.0    15    1.8   115      2.9   924.9    0.00       0    80.2
 260    4:30   70.4    14    1.4   216      2.6   924.9    0.00       0    80.1
 260    4:40   69.3    13    2.9   272      4.1   925.0    0.00       0    80.0
 260    4:50   68.8    16    3.8   296      4.7   925.1    0.00       0    80.0
 260    5:00   68.4    16    3.9   309      4.7   925.2    0.00       0    80.1
 260    5:10   68.7    16    3.6   335      4.5   925.2    0.00       0    80.0
 260    5:20   70.1    15    2.6    33      3.6   925.1    0.00       0    79.9
 260    5:30   71.0    14    2.8   345      3.4   925.1    0.00       0    79.8
 260    5:40   71.5    14    2.0   329      3.0   925.2    0.00       1    79.6
 260    5:50   72.1    16    1.3    42      3.1   925.3    0.00       2    79.4
 260    6:00   71.9    16    0.7    34      4.7   925.3    0.00       6    79.2
 260    6:10   71.4    21    4.0    63      5.3   925.2    0.00      10    79.1
 260    6:20   70.8    18    2.7   316      4.9   925.3    0.00      13    79.0
 260    6:30   69.8    15    4.4   297      6.3   925.5    0.00      34    78.9
 260    6:40   70.3    15    4.3   303      6.3   925.5    0.00     143    78.9
 260    6:50   70.9    14    5.0   310      6.1   925.6    0.00     179    78.8
 260    7:00   71.7    13    4.9   318      5.9   925.7    0.00     217    78.6
 260    7:10   72.8    12    2.6    13      4.2   925.8    0.00     256    78.5
 260    7:20   74.4    12    1.3   358      1.9   925.8    0.00     294    78.3
 260    7:30   75.6    12    0.5    18      1.9   925.8    0.00     333    78.1
 260    7:40   77.1    12    0.3   338      1.3   925.8    0.00     371    78.1
 260    7:50   76.6    11    1.4   255      2.3   925.9    0.00     408    78.1
 260    8:00   75.9    12    1.4   242      2.3   925.8    0.00     445    78.0
 260    8:10   75.2    13    1.7   247      2.2   925.9    0.00     480    78.0
 260    8:20   75.0    14    2.3   255      3.6   926.0    0.00     514    77.9
 260    8:30   74.9    13    2.5   269      3.4   926.1    0.00     548    77.9
 260    8:40   74.7    11    3.7   272      4.5   926.2    0.00     581    78.0
 260    8:50   74.7    12    3.6   267      5.5   926.2    0.00     612    78.0
 260    9:00   74.8    12    3.8   269      5.3   926.2    0.00     641    78.1
 260    9:10   74.6    13    4.6   266      6.4   926.3    0.00     670    78.2
 260    9:20   73.9    15    4.6   258      6.6   926.3    0.00     698    78.3
 260    9:30   74.4    17    4.6   277      8.0   926.3    0.00     721    78.3
 260    9:40   74.8    20    4.7   277      6.9   926.3    0.00     745    78.5
 260    9:50   74.9    23    4.7   276      7.3   926.4    0.00     768    78.7
 260   10:00   75.4    25    5.2   275      7.7   926.5    0.00     788    78.9
 260   10:10   75.1    25    5.0   258      8.3   926.5    0.00     806    79.1
 260   10:20   75.0    25    4.3   258      7.2   926.6    0.00     823    79.4
 260   10:30   75.3    26    5.4   262      7.7   926.6    0.00     838    79.6
 260   10:40   75.1    28    5.7   264      8.0   926.6    0.00     852    79.9
 260   10:50   74.9    27    5.2   274      7.7   926.6    0.00     864    80.2
 260   11:00   75.1    26    4.5   274      8.0   926.6    0.00     875    80.4
 260   11:10   75.6    25    4.8   268      8.2   926.5    0.00     883    80.7
 260   11:20   75.6    24    5.3   265      8.0   926.5    0.00     892    81.1
 260   11:30   76.1    24    4.7   264      7.0   926.5    0.00     898    81.4
 260   11:40   76.0    24    4.6   268      7.6   926.5    0.00     901    81.7
 260   11:50   77.1    23    4.1   273      6.9   926.4    0.00     902    82.0
 260   12:00   78.5    23    4.7   278      7.5   926.4    0.00     902    82.3
 260   12:10   78.3    24    5.3   270      8.1   926.3    0.00     899    82.6
 260   12:20   77.4    25    5.2   273      8.0   926.3    0.00     896    83.0
 260   12:30   77.5    26    5.8   264      8.5   926.2    0.00     891    83.3
 260   12:40   78.1    26    5.9   270      8.0   926.2    0.00     884    83.7

Return to Highlands Peak graphs page.


Western Regional Climate Center,wrcc@dri.edu